Othello, Washington
Current Conditions -  °F | °C
As of 9:52 PM on Saturday 25 Oct 2014 (Local Time) from KMWH Reporting Station
Clear Clear  
Wind Chill: 59°   Ceiling: Unl
Heat Index: 59°   Visibility: 10mi
Dew Point: 45°   Wind: 24mph
Humidity: 60%   Direction: 200°SSW
Pressure: 29.51"   Gusts: 36mph
Location:  46.83°N, 119.18°W
Report Text: KMWH 260452Z AUTO 20021G31KT 10SM CLR 15/07 A2951 RMK AO2 PK WND 19031/0449 SLP994 T01500072 TSNO
Loading
Personal Weather Stations






























Interactive Weather Map
Tropical Storm Tracking
New forecast layout! Learn more

10-Day Weather Forecast

Advertisements
Track Severe Weather on mobile